createdAt,value
2023-06-07T00:00:50.447Z,100324.75
2023-06-07T00:03:53.408Z,100323.53
2023-06-07T00:07:02.336Z,100319.25
2023-06-07T00:10:05.915Z,100327.84
2023-06-07T00:13:08.934Z,100324.38
2023-06-07T00:16:11.897Z,100322.28
2023-06-07T00:19:16.509Z,100318.81
2023-06-07T00:22:19.295Z,100323.09
2023-06-07T00:25:22.226Z,100323.09
2023-06-07T00:28:25.370Z,100319.25
2023-06-07T00:31:28.909Z,100322.50
2023-06-07T00:34:31.793Z,100322.72
2023-06-07T00:37:34.849Z,100325.84
2023-06-07T00:40:37.575Z,100317.47
2023-06-07T00:43:40.312Z,100316.81
2023-06-07T00:46:43.128Z,100311.69
2023-06-07T00:49:46.109Z,100314.56
2023-06-07T00:52:49.106Z,100317.63
2023-06-07T00:55:52.119Z,100313.31
2023-06-07T00:58:55.048Z,100317.63
2023-06-07T01:01:58.876Z,100314.72
2023-06-07T01:05:05.004Z,100310.28
2023-06-07T01:08:08.055Z,100310.06
2023-06-07T01:11:12.146Z,100308.41
2023-06-07T01:14:15.851Z,100317.25
2023-06-07T01:17:19.467Z,100304.94
2023-06-07T01:20:26.746Z,100299.38
2023-06-07T01:23:34.076Z,100301.22
2023-06-07T01:26:38.186Z,100297.75
2023-06-07T01:29:41.140Z,100295.28
2023-06-07T01:32:44.345Z,100295.28
2023-06-07T01:35:48.400Z,100290.63
2023-06-07T01:38:51.523Z,100293.50
2023-06-07T01:41:54.746Z,100290.63
2023-06-07T01:44:58.634Z,100291.66
2023-06-07T01:48:02.119Z,100291.87
2023-06-07T01:51:04.967Z,100287.59
2023-06-07T01:54:07.779Z,100284.91
2023-06-07T01:57:10.643Z,100290.25
2023-06-07T02:00:24.473Z,100284.91
2023-06-07T02:03:38.010Z,100280.84
2023-06-07T02:06:45.204Z,100276.53
2023-06-07T02:09:49.338Z,100281.28
2023-06-07T02:12:54.435Z,100277.56
2023-06-07T02:15:57.252Z,100273.28
2023-06-07T02:19:00.782Z,100274.09
2023-06-07T02:22:03.652Z,100269.78
2023-06-07T02:25:06.899Z,100276.75
2023-06-07T02:28:10.079Z,100277.34
2023-06-07T02:31:12.800Z,100276.53
2023-06-07T02:34:15.584Z,100277.34
2023-06-07T02:37:18.996Z,100273.06
2023-06-07T02:40:22.086Z,100268.75
2023-06-07T02:43:24.701Z,100275.94
2023-06-07T02:46:27.502Z,100275.94
2023-06-07T02:49:30.238Z,100274.09
2023-06-07T02:52:33.435Z,100271.41
2023-06-07T02:55:36.196Z,100280.47
2023-06-07T02:58:39.283Z,100270.59
2023-06-07T03:01:42.018Z,100272.47
2023-06-07T03:04:45.132Z,100271.63
2023-06-07T03:07:47.814Z,100267.72
2023-06-07T03:10:50.658Z,100275.72
2023-06-07T03:13:53.433Z,100273.06
2023-06-07T03:16:56.270Z,100274.69
2023-06-07T03:19:58.942Z,100282.09
2023-06-07T03:23:03.697Z,100281.66
2023-06-07T03:26:06.591Z,100284.31
2023-06-07T03:29:10.786Z,100282.69
2023-06-07T03:32:13.415Z,100287.81
2023-06-07T03:35:16.172Z,100286.75
2023-06-07T03:38:18.836Z,100288.63
2023-06-07T03:41:21.545Z,100285.34
2023-06-07T03:44:25.123Z,100303.00
2023-06-07T03:47:28.094Z,100297.66
2023-06-07T03:50:30.993Z,100295.59
2023-06-07T03:53:34.172Z,100300.47
2023-06-07T03:56:37.222Z,100299.44
2023-06-07T03:59:40.054Z,100302.72
2023-06-07T04:02:43.092Z,100305.97
2023-06-07T04:05:46.949Z,100299.00
2023-06-07T04:08:49.625Z,100302.88
2023-06-07T04:11:52.724Z,100300.84
2023-06-07T04:14:55.470Z,100299.22
2023-06-07T04:17:58.282Z,100295.28
2023-06-07T04:21:01.258Z,100296.72
2023-06-07T04:24:05.605Z,100294.47
2023-06-07T04:27:12.805Z,100299.00
2023-06-07T04:30:19.582Z,100297.97
2023-06-07T04:33:22.577Z,100307.81
2023-06-07T04:36:29.876Z,100300.84
2023-06-07T04:39:32.541Z,100308.41
2023-06-07T04:42:35.520Z,100301.81
2023-06-07T04:45:41.415Z,100300.78
2023-06-07T04:48:44.714Z,100303.47
2023-06-07T04:51:49.890Z,100303.00
2023-06-07T04:54:54.990Z,100312.72
2023-06-07T04:58:01.387Z,100301.44
2023-06-07T05:01:04.658Z,100309.38
2023-06-07T05:04:07.515Z,100305.09
2023-06-07T05:07:12.577Z,100314.87
2023-06-07T05:10:15.373Z,100318.22
2023-06-07T05:13:18.175Z,100318.72
2023-06-07T05:16:21.510Z,100317.69
2023-06-07T05:19:24.340Z,100311.72
2023-06-07T05:22:27.300Z,100315.94
2023-06-07T05:25:30.366Z,100318.13
2023-06-07T05:28:33.105Z,100318.56
2023-06-07T05:31:35.924Z,100318.13
2023-06-07T05:34:39.600Z,100322.66
2023-06-07T05:37:42.395Z,100322.81
2023-06-07T05:40:45.168Z,100325.25
2023-06-07T05:43:47.897Z,100315.75
2023-06-07T05:46:50.641Z,100318.87
2023-06-07T05:49:54.948Z,100324.94
2023-06-07T05:52:58.733Z,100321.59
2023-06-07T05:56:01.677Z,100321.16
2023-06-07T05:59:04.385Z,100328.28
2023-06-07T06:02:08.501Z,100328.34
2023-06-07T06:05:11.438Z,100334.00
2023-06-07T06:08:14.723Z,100329.38
2023-06-07T06:11:17.581Z,100334.69
2023-06-07T06:14:22.239Z,100331.94
2023-06-07T06:17:25.030Z,100333.00
2023-06-07T06:20:28.000Z,100335.47
2023-06-07T06:23:30.785Z,100333.97
2023-06-07T06:26:34.115Z,100338.94
2023-06-07T06:29:36.828Z,100338.53
2023-06-07T06:32:40.449Z,100336.88
2023-06-07T06:35:44.642Z,100340.03
2023-06-07T06:38:47.776Z,100342.53
2023-06-07T06:41:50.615Z,100341.19
2023-06-07T06:44:53.427Z,100336.34
2023-06-07T06:47:56.448Z,100348.13
2023-06-07T06:50:59.296Z,100344.66
2023-06-07T06:54:02.104Z,100344.31
2023-06-07T06:57:05.305Z,100338.16
2023-06-07T07:00:11.687Z,100346.81
2023-06-07T07:03:14.492Z,100348.56
2023-06-07T07:06:18.182Z,100350.69
2023-06-07T07:09:20.963Z,100355.22
2023-06-07T07:12:23.876Z,100345.19
2023-06-07T07:15:29.015Z,100356.13
2023-06-07T07:18:31.778Z,100349.50
2023-06-07T07:21:34.524Z,100354.75
2023-06-07T07:24:37.202Z,100343.38
2023-06-07T07:27:40.072Z,100347.34
2023-06-07T07:30:42.820Z,100346.84
2023-06-07T07:33:45.617Z,100350.91
2023-06-07T07:36:48.560Z,100355.37
2023-06-07T07:39:51.533Z,100353.97
2023-06-07T07:42:54.274Z,100355.94
2023-06-07T07:45:57.228Z,100354.31
2023-06-07T07:49:00.193Z,100354.53
2023-06-07T07:52:03.097Z,100349.81
2023-06-07T07:55:08.624Z,100345.31
2023-06-07T07:58:11.841Z,100342.00
2023-06-07T08:01:16.587Z,100344.94
2023-06-07T08:04:19.382Z,100352.37
2023-06-07T08:07:22.199Z,100353.16
2023-06-07T08:10:26.261Z,100349.25
2023-06-07T08:13:29.892Z,100347.69
2023-06-07T08:16:32.918Z,100354.34
2023-06-07T08:19:36.024Z,100352.25
2023-06-07T08:22:42.420Z,100362.59
2023-06-07T08:25:45.081Z,100352.00
2023-06-07T08:28:47.927Z,100361.69
2023-06-07T08:31:50.780Z,100356.56
2023-06-07T08:34:53.631Z,100349.75
2023-06-07T08:37:56.395Z,100354.19
2023-06-07T08:41:02.051Z,100354.75
2023-06-07T08:44:05.084Z,100355.91
2023-06-07T08:47:08.431Z,100353.41
2023-06-07T08:50:15.397Z,100351.75
2023-06-07T08:53:28.039Z,100346.78
2023-06-07T08:56:34.508Z,100353.13
2023-06-07T08:59:38.125Z,100348.44
2023-06-07T09:02:41.002Z,100355.44
2023-06-07T09:05:44.404Z,100360.34
2023-06-07T09:08:47.263Z,100366.28
2023-06-07T09:11:54.082Z,100366.78
2023-06-07T09:14:57.032Z,100363.03
2023-06-07T09:18:01.392Z,100370.03
2023-06-07T09:21:24.188Z,100360.94
2023-06-07T09:24:31.625Z,100358.72
2023-06-07T09:27:34.577Z,100355.78
2023-06-07T09:30:46.871Z,100355.81
2023-06-07T09:33:49.663Z,100356.28
2023-06-07T09:36:57.936Z,100357.69
2023-06-07T09:40:09.088Z,100347.41
2023-06-07T09:43:12.447Z,100361.50
2023-06-07T09:46:16.385Z,100369.41
2023-06-07T09:49:36.174Z,100371.63
2023-06-07T09:52:40.438Z,100377.44
2023-06-07T09:55:43.376Z,100380.25
2023-06-07T09:58:50.816Z,100375.34
2023-06-07T10:01:54.335Z,100375.69
2023-06-07T10:04:59.704Z,100370.56
2023-06-07T10:08:03.708Z,100391.03
2023-06-07T10:11:06.886Z,100389.06
2023-06-07T10:14:14.095Z,100390.13
2023-06-07T10:17:18.027Z,100403.34
2023-06-07T10:20:26.118Z,100412.78
2023-06-07T10:23:45.912Z,100408.06
2023-06-07T10:26:58.674Z,100406.81
2023-06-07T10:30:03.118Z,100405.09
2023-06-07T10:33:06.624Z,100399.75
2023-06-07T10:36:09.702Z,100397.88
2023-06-07T10:39:13.267Z,100405.69
2023-06-07T10:42:17.269Z,100394.78
2023-06-07T10:45:21.153Z,100404.13
2023-06-07T10:48:35.894Z,100405.91
2023-06-07T10:51:53.150Z,100399.28
2023-06-07T10:54:56.182Z,100400.94
2023-06-07T10:57:59.903Z,100405.59
2023-06-07T11:01:23.045Z,100405.16
2023-06-07T11:04:41.499Z,100403.28
2023-06-07T11:07:49.144Z,100384.28
2023-06-07T11:10:52.213Z,100392.31
2023-06-07T11:13:54.900Z,100381.84
2023-06-07T11:16:58.006Z,100386.53
2023-06-07T11:20:01.800Z,100387.25
2023-06-07T11:23:30.330Z,100382.13
2023-06-07T11:26:37.007Z,100380.28
2023-06-07T11:29:41.053Z,100375.50
2023-06-07T11:32:45.465Z,100370.13
2023-06-07T11:35:53.261Z,100365.75
2023-06-07T11:38:57.865Z,100375.09
2023-06-07T11:42:00.852Z,100368.72
2023-06-07T11:45:05.471Z,100379.72
2023-06-07T11:48:09.332Z,100388.63
2023-06-07T11:51:13.201Z,100390.56
2023-06-07T11:54:16.412Z,100390.25
2023-06-07T11:57:20.654Z,100395.28
2023-06-07T12:00:25.021Z,100396.66
2023-06-07T12:03:28.468Z,100399.19
2023-06-07T12:06:31.758Z,100386.63
2023-06-07T12:09:41.706Z,100394.91
2023-06-07T12:12:44.643Z,100384.53
2023-06-07T12:15:55.542Z,100378.72
2023-06-07T12:18:58.693Z,100377.69
2023-06-07T12:22:09.404Z,100371.50
2023-06-07T12:25:16.807Z,100367.94
2023-06-07T12:28:22.336Z,100354.19
2023-06-07T12:31:29.724Z,100362.91
2023-06-07T12:34:33.462Z,100357.16
2023-06-07T12:37:37.160Z,100358.25
2023-06-07T12:40:40.058Z,100358.94
2023-06-07T12:43:50.175Z,100354.34
2023-06-07T12:46:53.073Z,100350.19
2023-06-07T12:49:55.915Z,100355.69
2023-06-07T12:52:58.781Z,100356.63
2023-06-07T12:56:01.681Z,100357.22
2023-06-07T12:59:04.598Z,100359.63
2023-06-07T13:02:07.707Z,100359.97
2023-06-07T13:05:14.281Z,100363.84
2023-06-07T13:08:17.466Z,100362.22
2023-06-07T13:11:20.257Z,100360.22
2023-06-07T13:14:23.195Z,100360.91
2023-06-07T13:17:26.460Z,100368.72
2023-06-07T13:20:29.517Z,100356.84
2023-06-07T13:23:32.353Z,100359.53
2023-06-07T13:26:35.127Z,100366.78
2023-06-07T13:29:37.955Z,100364.47
2023-06-07T13:32:41.848Z,100371.81
2023-06-07T13:35:44.716Z,100381.66
2023-06-07T13:38:47.572Z,100377.69
2023-06-07T13:41:50.321Z,100371.38
2023-06-07T13:44:53.992Z,100376.03
2023-06-07T13:47:56.836Z,100368.47
2023-06-07T13:50:59.803Z,100370.56
2023-06-07T13:54:02.825Z,100366.53
2023-06-07T13:57:06.107Z,100370.00
2023-06-07T14:00:10.127Z,100365.41
2023-06-07T14:03:13.576Z,100368.19
2023-06-07T14:06:16.688Z,100369.44
2023-06-07T14:09:20.607Z,100362.41
2023-06-07T14:12:23.390Z,100372.41
2023-06-07T14:15:28.004Z,100372.66
2023-06-07T14:18:31.219Z,100369.41
2023-06-07T14:21:35.001Z,100363.53
2023-06-07T14:24:37.841Z,100360.28
2023-06-07T14:27:40.534Z,100365.81
2023-06-07T14:30:43.292Z,100361.19
2023-06-07T14:33:46.392Z,100364.38
2023-06-07T14:36:49.219Z,100361.44
2023-06-07T14:39:52.126Z,100352.53
2023-06-07T14:42:55.061Z,100357.84
2023-06-07T14:45:58.079Z,100348.25
2023-06-07T14:49:01.098Z,100349.72
2023-06-07T14:52:04.622Z,100346.81
2023-06-07T14:55:08.845Z,100341.91
2023-06-07T14:58:12.324Z,100332.13
2023-06-07T15:01:15.991Z,100332.75
2023-06-07T15:04:19.288Z,100332.88
2023-06-07T15:07:22.089Z,100328.19
2023-06-07T15:10:24.944Z,100328.87
2023-06-07T15:13:27.641Z,100329.63
2023-06-07T15:16:30.825Z,100329.31
2023-06-07T15:19:34.273Z,100315.56
2023-06-07T15:22:41.470Z,100318.09
2023-06-07T15:25:44.224Z,100308.78
2023-06-07T15:28:46.977Z,100307.91
2023-06-07T15:31:52.995Z,100301.75
2023-06-07T15:34:56.011Z,100299.56
2023-06-07T15:37:58.734Z,100292.81
2023-06-07T15:41:01.570Z,100292.22
2023-06-07T15:44:07.387Z,100291.75
2023-06-07T15:47:11.458Z,100287.41
2023-06-07T15:50:14.288Z,100280.94
2023-06-07T15:53:20.548Z,100274.03
2023-06-07T15:56:23.355Z,100269.00
2023-06-07T15:59:26.197Z,100278.06
2023-06-07T16:02:29.160Z,100280.63
2023-06-07T16:05:32.186Z,100271.47
2023-06-07T16:08:35.008Z,100278.97
2023-06-07T16:11:39.903Z,100273.81
2023-06-07T16:14:43.006Z,100286.00
2023-06-07T16:17:45.812Z,100277.19
2023-06-07T16:20:48.593Z,100280.91
2023-06-07T16:23:51.491Z,100284.94
2023-06-07T16:26:54.430Z,100289.19
2023-06-07T16:29:57.399Z,100291.69
2023-06-07T16:33:05.792Z,100293.44
2023-06-07T16:36:08.819Z,100298.06
2023-06-07T16:39:11.601Z,100290.59
2023-06-07T16:42:14.510Z,100290.25
2023-06-07T16:45:17.276Z,100293.66
2023-06-07T16:48:23.050Z,100287.53
2023-06-07T16:51:25.923Z,100281.97
2023-06-07T16:54:28.728Z,100278.19
2023-06-07T16:57:31.434Z,100276.81
2023-06-07T17:00:34.253Z,100276.50
2023-06-07T17:03:37.089Z,100273.06
2023-06-07T17:06:39.989Z,100271.63
2023-06-07T17:09:42.741Z,100274.81
2023-06-07T17:12:45.815Z,100278.03
2023-06-07T17:15:50.720Z,100276.72
2023-06-07T17:18:53.708Z,100280.47
2023-06-07T17:21:56.432Z,100279.97
2023-06-07T17:24:59.329Z,100273.56
2023-06-07T17:28:05.624Z,100283.06
2023-06-07T17:31:08.480Z,100287.75
2023-06-07T17:34:13.284Z,100289.16
2023-06-07T17:37:18.984Z,100286.94
2023-06-07T17:40:21.761Z,100291.47
2023-06-07T17:43:24.534Z,100294.03
2023-06-07T17:46:27.310Z,100292.19
2023-06-07T17:49:30.761Z,100294.87
2023-06-07T17:52:33.469Z,100289.88
2023-06-07T17:55:36.547Z,100287.47
2023-06-07T17:58:39.400Z,100293.19
2023-06-07T18:01:44.439Z,100300.66
2023-06-07T18:04:47.316Z,100289.78
2023-06-07T18:07:50.221Z,100302.25
2023-06-07T18:10:53.139Z,100296.22
2023-06-07T18:13:56.241Z,100297.38
2023-06-07T18:16:59.186Z,100296.56
2023-06-07T18:20:02.812Z,100307.84
2023-06-07T18:23:06.695Z,100305.94
2023-06-07T18:26:11.553Z,100314.87
2023-06-07T18:29:16.414Z,100313.12
2023-06-07T18:32:19.372Z,100311.22
2023-06-07T18:35:22.392Z,100320.03
2023-06-07T18:38:25.729Z,100316.25
2023-06-07T18:41:29.251Z,100318.22
2023-06-07T18:44:32.921Z,100323.41
2023-06-07T18:47:35.907Z,100317.22
2023-06-07T18:50:38.801Z,100316.84
2023-06-07T18:53:41.694Z,100317.97
2023-06-07T18:56:44.499Z,100322.56
2023-06-07T18:59:48.670Z,100318.47
2023-06-07T19:02:52.441Z,100327.38
2023-06-07T19:05:56.377Z,100323.75
2023-06-07T19:08:59.208Z,100322.94
2023-06-07T19:12:02.097Z,100320.50
2023-06-07T19:15:05.758Z,100318.28
2023-06-07T19:18:09.387Z,100322.81
2023-06-07T19:21:13.124Z,100332.06
2023-06-07T19:24:16.636Z,100327.19
2023-06-07T19:27:19.943Z,100332.56
2023-06-07T19:30:22.904Z,100332.19
2023-06-07T19:33:28.510Z,100342.06
2023-06-07T19:36:32.673Z,100342.28
2023-06-07T19:39:35.584Z,100336.78
2023-06-07T19:42:39.170Z,100346.03
2023-06-07T19:45:41.990Z,100340.91
2023-06-07T19:48:46.828Z,100350.78
2023-06-07T19:51:49.627Z,100347.72
2023-06-07T19:54:53.197Z,100347.50
2023-06-07T19:57:55.988Z,100344.25
2023-06-07T20:00:58.919Z,100347.12
2023-06-07T20:04:03.511Z,100342.81
2023-06-07T20:07:09.414Z,100348.59
2023-06-07T20:10:12.258Z,100349.03
2023-06-07T20:13:18.347Z,100350.38
2023-06-07T20:16:21.687Z,100354.72
2023-06-07T20:19:24.868Z,100359.03
2023-06-07T20:22:33.881Z,100358.66
2023-06-07T20:25:36.820Z,100355.37
2023-06-07T20:28:39.769Z,100352.13
2023-06-07T20:31:46.411Z,100354.63
2023-06-07T20:34:49.209Z,100348.69
2023-06-07T20:37:52.153Z,100354.66
2023-06-07T20:40:54.829Z,100353.44
2023-06-07T20:43:57.570Z,100358.63
2023-06-07T20:47:01.414Z,100346.97
2023-06-07T20:50:04.712Z,100356.59
2023-06-07T20:53:07.816Z,100352.97
2023-06-07T20:56:10.709Z,100349.75
2023-06-07T20:59:13.457Z,100356.31
2023-06-07T21:02:16.384Z,100351.00
2023-06-07T21:05:20.700Z,100340.34
2023-06-07T21:08:23.650Z,100346.13
2023-06-07T21:11:26.979Z,100337.56
2023-06-07T21:14:32.894Z,100345.16
2023-06-07T21:17:35.863Z,100336.41
2023-06-07T21:20:38.568Z,100335.84
2023-06-07T21:23:41.526Z,100325.00
2023-06-07T21:26:47.304Z,100322.16
2023-06-07T21:29:53.962Z,100331.22
2023-06-07T21:32:56.879Z,100334.47
2023-06-07T21:35:59.855Z,100330.22
2023-06-07T21:39:02.807Z,100326.75
2023-06-07T21:42:06.124Z,100329.66
2023-06-07T21:45:09.533Z,100319.03
2023-06-07T21:48:15.418Z,100319.66
2023-06-07T21:51:18.217Z,100321.53
2023-06-07T21:54:21.002Z,100319.47
2023-06-07T21:57:23.825Z,100321.50
2023-06-07T22:00:27.259Z,100328.28
2023-06-07T22:03:30.086Z,100325.22
2023-06-07T22:06:32.864Z,100325.84
2023-06-07T22:09:35.611Z,100323.19
2023-06-07T22:12:41.850Z,100315.41
2023-06-07T22:15:45.727Z,100319.09
2023-06-07T22:18:49.905Z,100320.53
2023-06-07T22:21:52.598Z,100320.34
2023-06-07T22:24:55.271Z,100326.06
2023-06-07T22:27:59.302Z,100316.66
2023-06-07T22:31:05.090Z,100319.50
2023-06-07T22:34:08.680Z,100321.34
2023-06-07T22:37:12.624Z,100326.88
2023-06-07T22:40:15.401Z,100334.84
2023-06-07T22:43:18.129Z,100337.31
2023-06-07T22:46:20.907Z,100334.66
2023-06-07T22:49:23.634Z,100332.19
2023-06-07T22:52:29.800Z,100328.31
2023-06-07T22:55:34.104Z,100337.72
2023-06-07T22:58:37.068Z,100341.59
2023-06-07T23:01:39.701Z,100339.16
2023-06-07T23:04:46.286Z,100328.09
2023-06-07T23:07:50.429Z,100319.72
2023-06-07T23:10:54.059Z,100321.56
2023-06-07T23:14:01.020Z,100327.09
2023-06-07T23:17:04.012Z,100319.50
2023-06-07T23:20:11.224Z,100316.66
2023-06-07T23:23:14.008Z,100308.44
2023-06-07T23:26:18.119Z,100308.66
2023-06-07T23:29:21.955Z,100300.25
2023-06-07T23:32:24.845Z,100308.84
2023-06-07T23:35:28.070Z,100291.87
2023-06-07T23:38:30.755Z,100289.81
2023-06-07T23:41:33.560Z,100281.63
2023-06-07T23:44:36.244Z,100284.06
2023-06-07T23:47:39.064Z,100284.25
2023-06-07T23:50:44.620Z,100279.75
2023-06-07T23:53:47.382Z,100281.37
2023-06-07T23:56:50.754Z,100285.44
2023-06-07T23:59:53.548Z,100291.75
